Time;durP1;ratioP1;P1;durP2;ratioP2;P2;SDS_P1;SDS_P2;PMS_P1;PMS_P2;Temp;Humidity;BMP_temperature;BMP_pressure;BME280_temperature;BME280_humidity;BME280_pressure;Samples;Min_cycle;Max_cycle;Signal;HPM_P1;HPM_P2
2022/02/26 00:01:32;;;;;;;13.93;4.88;;;5.30;1.00;;;;;;5036233;28;20214;-81
2022/02/26 00:03:59;;;;;;;13.23;4.75;;;5.30;1.00;;;;;;5017241;28;21071;-80
2022/02/26 00:06:26;;;;;;;27.13;5.32;;;5.30;1.00;;;;;;5015672;28;20258;-83
2022/02/26 00:08:53;;;;;;;13.65;3.90;;;5.30;1.00;;;;;;5007546;28;20231;-81
2022/02/26 00:11:21;;;;;;;16.90;4.35;;;5.30;1.00;;;;;;5010401;28;20237;-82
2022/02/26 00:13:48;;;;;;;16.40;4.95;;;5.30;1.00;;;;;;5009265;28;20238;-80
2022/02/26 00:16:15;;;;;;;18.40;4.95;;;5.30;1.00;;;;;;5015604;28;20282;-80
2022/02/26 00:18:41;;;;;;;12.45;4.30;;;5.30;1.00;;;;;;5012132;28;20705;-81
2022/02/26 00:21:08;;;;;;;20.80;6.00;;;5.30;1.00;;;;;;5012405;28;20236;-85
2022/02/26 00:23:35;;;;;;;11.95;4.82;;;5.30;1.00;;;;;;5009022;28;20225;-85
2022/02/26 00:26:02;;;;;;;16.20;5.70;;;5.30;1.00;;;;;;5014437;28;20226;-85
2022/02/26 00:28:30;;;;;;;16.23;4.45;;;5.30;1.00;;;;;;5018407;28;20222;-83
2022/02/26 00:30:57;;;;;;;15.70;4.43;;;5.30;1.00;;;;;;5016119;28;20725;-84
2022/02/26 00:33:24;;;;;;;24.83;4.85;;;5.20;1.00;;;;;;5023618;28;20224;-84
2022/02/26 00:35:50;;;;;;;11.73;4.35;;;5.20;1.00;;;;;;5033307;28;20321;-85
2022/02/26 00:38:17;;;;;;;18.55;5.20;;;5.20;1.00;;;;;;5032378;28;20232;-86
2022/02/26 00:40:43;;;;;;;16.15;6.07;;;5.20;1.00;;;;;;5039758;28;20239;-85
2022/02/26 00:43:10;;;;;;;16.67;4.43;;;5.20;1.00;;;;;;5044732;28;20271;-86
2022/02/26 00:45:38;;;;;;;16.52;5.15;;;5.20;1.00;;;;;;5039494;28;20218;-80
2022/02/26 00:48:05;;;;;;;15.45;5.57;;;5.20;1.00;;;;;;5028347;28;20733;-82
2022/02/26 00:50:30;;;;;;;20.75;6.57;;;5.20;1.00;;;;;;5025279;28;20215;-80
2022/02/26 00:52:58;;;;;;;16.93;5.50;;;5.20;1.00;;;;;;5019277;28;20283;-82
2022/02/26 00:55:25;;;;;;;13.88;5.50;;;5.20;1.00;;;;;;5018877;28;20437;-82
2022/02/26 00:57:51;;;;;;;12.85;4.13;;;5.20;1.00;;;;;;5015784;28;20223;-81
2022/02/26 01:00:18;;;;;;;17.50;4.63;;;5.20;1.00;;;;;;5012886;28;20253;-83
2022/02/26 01:02:46;;;;;;;15.18;4.20;;;5.30;1.00;;;;;;5010333;28;20234;-81
2022/02/26 01:05:14;;;;;;;16.98;4.85;;;5.30;1.00;;;;;;5012623;28;20218;-81
2022/02/26 01:07:41;;;;;;;16.88;5.35;;;5.30;1.00;;;;;;5009414;28;20234;-81
2022/02/26 01:10:09;;;;;;;13.00;4.10;;;5.30;1.00;;;;;;5011096;28;20237;-82
2022/02/26 01:12:36;;;;;;;17.23;5.15;;;5.30;1.00;;;;;;5012573;28;20231;-81
2022/02/26 01:15:03;;;;;;;16.98;4.70;;;5.30;1.00;;;;;;5007712;28;20230;-82
2022/02/26 01:17:30;;;;;;;17.35;5.43;;;5.30;1.00;;;;;;5014320;28;20227;-81
2022/02/26 01:19:59;;;;;;;15.55;4.53;;;5.40;1.00;;;;;;5013255;28;20906;-79
2022/02/26 01:22:25;;;;;;;19.40;5.10;;;5.40;1.00;;;;;;5017239;28;20242;-81
2022/02/26 01:24:52;;;;;;;12.73;4.53;;;5.40;1.00;;;;;;5014049;28;20226;-83
2022/02/26 01:27:19;;;;;;;16.92;4.70;;;5.40;1.00;;;;;;5010144;28;20233;-81
2022/02/26 01:29:45;;;;;;;18.70;4.57;;;5.40;1.00;;;;;;5014447;28;21084;-83
2022/02/26 01:32:12;;;;;;;14.80;4.40;;;5.40;1.00;;;;;;5020413;28;20281;-83
2022/02/26 01:34:38;;;;;;;14.27;4.47;;;5.40;1.00;;;;;;5017303;28;20226;-83
2022/02/26 01:37:06;;;;;;;9.90;4.30;;;5.40;1.00;;;;;;5010903;28;20230;-82
2022/02/26 01:39:33;;;;;;;15.00;4.90;;;5.40;1.00;;;;;;5016876;28;20222;-80
2022/02/26 01:42:00;;;;;;;15.07;4.82;;;5.40;1.00;;;;;;5015780;28;20230;-81
2022/02/26 01:44:27;;;;;;;14.77;4.07;;;5.40;1.00;;;;;;5012093;28;20219;-82
2022/02/26 01:46:54;;;;;;;20.23;4.60;;;5.40;1.00;;;;;;5013647;28;20260;-82
2022/02/26 01:49:21;;;;;;;14.30;4.43;;;5.40;1.00;;;;;;5017135;28;20230;-82
2022/02/26 01:51:49;;;;;;;15.90;4.40;;;5.40;1.00;;;;;;5014527;28;20242;-80
2022/02/26 01:54:18;;;;;;;17.13;4.55;;;5.40;1.00;;;;;;5014418;28;21011;-81
2022/02/26 01:56:45;;;;;;;15.73;4.63;;;5.50;1.00;;;;;;5017092;28;20219;-82
2022/02/26 01:59:12;;;;;;;14.57;4.25;;;5.50;1.00;;;;;;5042038;28;20206;-81
2022/02/26 02:01:38;;;;;;;19.10;4.72;;;5.50;1.00;;;;;;5041552;28;20835;-80
2022/02/26 02:04:05;;;;;;;14.57;5.15;;;5.50;1.00;;;;;;5037028;28;20293;-80
2022/02/26 02:06:33;;;;;;;11.73;5.10;;;5.40;1.00;;;;;;5013450;28;21123;-80
2022/02/26 02:09:00;;;;;;;18.27;5.70;;;5.40;1.00;;;;;;5010768;28;20222;-81
2022/02/26 02:11:29;;;;;;;16.58;4.65;;;5.40;1.00;;;;;;5011005;28;20965;-82
2022/02/26 02:13:56;;;;;;;21.63;5.50;;;5.40;1.00;;;;;;5016107;28;20222;-80
2022/02/26 02:16:22;;;;;;;11.23;5.07;;;5.40;1.00;;;;;;5031606;28;20219;-81
2022/02/26 02:18:49;;;;;;;14.13;6.03;;;5.40;1.00;;;;;;5025103;28;20393;-80
2022/02/26 02:21:16;;;;;;;13.27;4.65;;;5.50;1.00;;;;;;5015096;28;20245;-83
2022/02/26 02:23:44;;;;;;;23.00;5.88;;;5.40;1.00;;;;;;5008198;28;20230;-81
2022/02/26 02:26:11;;;;;;;15.80;4.20;;;5.30;1.00;;;;;;5007969;28;20230;-82
2022/02/26 02:28:39;;;;;;;18.40;5.00;;;5.30;1.00;;;;;;5009779;28;20226;-79
2022/02/26 02:31:06;;;;;;;17.63;5.10;;;5.30;1.00;;;;;;5013088;28;20233;-82
2022/02/26 02:33:39;;;;;;;15.98;4.53;;;5.30;1.00;;;;;;5007635;28;20245;-81
2022/02/26 02:36:07;;;;;;;19.27;5.30;;;5.30;1.00;;;;;;5014397;28;20229;-82
2022/02/26 02:38:34;;;;;;;19.38;5.65;;;5.30;1.00;;;;;;5011433;28;20223;-83
2022/02/26 02:41:02;;;;;;;11.85;4.15;;;5.30;1.00;;;;;;5009885;28;20669;-81
2022/02/26 02:43:28;;;;;;;13.93;4.40;;;5.40;1.00;;;;;;5014024;28;20309;-82
2022/02/26 02:45:55;;;;;;;16.92;4.47;;;5.40;1.00;;;;;;5011814;28;20237;-80
2022/02/26 02:48:22;;;;;;;16.00;5.30;;;5.40;1.00;;;;;;5013408;28;20218;-80
2022/02/26 02:50:49;;;;;;;12.25;5.15;;;5.30;1.00;;;;;;5012728;28;20214;-79
2022/02/26 02:53:18;;;;;;;15.52;5.32;;;5.30;1.00;;;;;;5019628;28;21042;-80
2022/02/26 02:55:45;;;;;;;14.18;5.57;;;5.30;1.00;;;;;;5016013;28;20232;-79
2022/02/26 02:58:13;;;;;;;15.88;4.18;;;5.30;1.00;;;;;;5026950;28;20214;-81
2022/02/26 03:00:40;;;;;;;18.05;5.32;;;5.20;1.00;;;;;;5012305;28;20233;-82
2022/02/26 03:03:07;;;;;;;18.50;5.43;;;5.30;1.00;;;;;;5012299;28;20239;-80
2022/02/26 03:05:34;;;;;;;21.45;5.82;;;5.20;1.00;;;;;;5015485;28;21105;-81
2022/02/26 03:08:01;;;;;;;15.45;5.57;;;5.30;1.00;;;;;;5012645;28;20277;-82
2022/02/26 03:10:27;;;;;;;22.45;5.75;;;5.30;1.00;;;;;;5011897;28;20300;-81
2022/02/26 03:12:54;;;;;;;18.30;5.60;;;5.30;1.00;;;;;;5020898;28;20225;-81
2022/02/26 03:15:24;;;;;;;19.60;6.50;;;5.30;1.00;;;;;;5019050;28;20230;-80
2022/02/26 03:17:51;;;;;;;21.05;6.60;;;5.30;1.00;;;;;;5037089;28;20229;-81
2022/02/26 03:20:18;;;;;;;20.98;6.43;;;5.30;1.00;;;;;;5037122;28;20230;-79
2022/02/26 03:22:45;;;;;;;16.52;5.28;;;5.30;1.00;;;;;;5037235;28;20306;-79
2022/02/26 03:25:12;;;;;;;18.83;6.25;;;5.20;1.00;;;;;;5035944;28;20222;-79
2022/02/26 03:27:40;;;;;;;18.27;5.35;;;5.20;1.00;;;;;;5039747;28;20220;-79
2022/02/26 03:30:09;;;;;;;17.95;5.68;;;5.20;1.00;;;;;;5037447;28;20297;-79
2022/02/26 03:32:37;;;;;;;15.70;5.40;;;5.20;1.00;;;;;;5040431;28;20246;-79
2022/02/26 03:35:05;;;;;;;14.82;5.10;;;5.30;1.00;;;;;;5030579;28;20671;-82
2022/02/26 03:37:32;;;;;;;22.75;6.13;;;5.30;1.00;;;;;;5015185;28;20233;-84
2022/02/26 03:40:00;;;;;;;23.27;5.80;;;5.30;1.00;;;;;;5012511;28;20221;-81
2022/02/26 03:42:26;;;;;;;19.65;6.07;;;5.30;1.00;;;;;;5014080;28;20775;-81
2022/02/26 03:44:53;;;;;;;18.33;5.80;;;5.30;1.00;;;;;;5014830;28;20222;-80
2022/02/26 03:47:20;;;;;;;21.75;6.57;;;5.30;1.00;;;;;;5020475;28;20217;-79
2022/02/26 03:49:48;;;;;;;24.92;5.60;;;5.30;1.00;;;;;;5023127;28;20223;-81
2022/02/26 03:52:15;;;;;;;19.10;6.13;;;5.30;1.00;;;;;;5012889;28;20327;-82
2022/02/26 03:54:42;;;;;;;23.58;6.25;;;5.30;1.00;;;;;;5009640;28;20232;-80
2022/02/26 03:57:09;;;;;;;17.75;6.65;;;5.20;1.00;;;;;;5009510;28;20226;-81
2022/02/26 03:59:36;;;;;;;19.10;7.20;;;5.30;1.00;;;;;;5014847;28;20232;-80
2022/02/26 04:02:03;;;;;;;21.10;6.85;;;5.20;1.00;;;;;;5013475;28;20242;-81
2022/02/26 04:04:29;;;;;;;21.80;6.22;;;5.20;1.00;;;;;;5011766;28;20963;-82
2022/02/26 04:06:57;;;;;;;22.13;6.45;;;5.20;1.00;;;;;;5040219;28;20356;-79
2022/02/26 04:09:24;;;;;;;16.10;6.15;;;5.20;1.00;;;;;;5042762;28;20240;-78
2022/02/26 04:11:51;;;;;;;17.80;5.85;;;5.20;1.00;;;;;;5038495;28;20285;-79
2022/02/26 04:14:18;;;;;;;25.90;8.45;;;5.20;1.00;;;;;;5035628;28;20210;-79
2022/02/26 04:16:45;;;;;;;20.40;6.00;;;5.20;1.00;;;;;;5025692;28;20310;-79
2022/02/26 04:19:11;;;;;;;17.73;5.90;;;5.10;1.00;;;;;;5011049;28;21523;-80
2022/02/26 04:21:39;;;;;;;24.15;7.05;;;5.00;1.00;;;;;;5009891;28;20230;-81
2022/02/26 04:24:07;;;;;;;18.15;6.25;;;5.00;1.00;;;;;;5011403;28;20231;-79
2022/02/26 04:26:34;;;;;;;18.40;6.00;;;5.00;1.00;;;;;;5006989;28;20232;-80
2022/02/26 04:29:01;;;;;;;22.33;6.53;;;5.00;1.00;;;;;;5012327;28;20218;-81
2022/02/26 04:31:28;;;;;;;21.52;6.53;;;4.90;1.00;;;;;;5012437;28;21341;-80
2022/02/26 04:33:54;;;;;;;18.52;5.63;;;4.90;1.00;;;;;;5009617;28;20295;-80
2022/02/26 04:36:21;;;;;;;16.77;6.20;;;4.80;1.00;;;;;;5012340;28;20297;-81
2022/02/26 04:38:48;;;;;;;11.85;6.10;;;4.80;1.00;;;;;;5012112;28;21015;-80
2022/02/26 04:41:16;;;;;;;17.20;5.68;;;4.70;1.00;;;;;;5006234;28;20315;-82
2022/02/26 04:43:44;;;;;;;13.68;5.88;;;4.70;1.00;;;;;;5018317;28;20249;-80
2022/02/26 04:46:12;;;;;;;17.05;5.88;;;4.70;1.00;;;;;;5021548;28;20218;-80
2022/02/26 04:48:39;;;;;;;15.30;5.00;;;4.60;1.00;;;;;;5014083;28;20222;-81
2022/02/26 04:51:08;;;;;;;14.57;5.30;;;4.60;1.00;;;;;;5018056;28;20237;-82
2022/02/26 04:53:35;;;;;;;16.83;5.50;;;4.50;1.00;;;;;;5040019;28;20286;-79
2022/02/26 04:56:03;;;;;;;22.25;5.60;;;4.50;1.00;;;;;;5044810;28;20230;-81
2022/02/26 04:58:31;;;;;;;17.45;6.10;;;4.40;1.00;;;;;;5041482;28;20234;-79
2022/02/26 05:00:58;;;;;;;14.18;4.88;;;4.40;1.00;;;;;;5034261;28;20251;-79
2022/02/26 05:03:25;;;;;;;15.15;6.00;;;4.40;1.00;;;;;;5015542;28;20345;-81
2022/02/26 05:05:53;;;;;;;17.88;5.10;;;4.40;1.00;;;;;;5015075;28;20277;-83
2022/02/26 05:08:19;;;;;;;23.08;5.07;;;4.40;1.00;;;;;;5015034;28;20232;-85
2022/02/26 05:10:46;;;;;;;14.35;5.50;;;4.50;1.00;;;;;;5015929;28;20230;-84
2022/02/26 05:13:13;;;;;;;21.83;5.68;;;4.50;1.00;;;;;;5015082;28;21471;-81
2022/02/26 05:15:41;;;;;;;19.80;5.35;;;4.60;1.00;;;;;;5013326;28;20222;-82
2022/02/26 05:18:08;;;;;;;17.95;4.95;;;4.70;1.00;;;;;;5018322;28;20214;-81
2022/02/26 05:20:35;;;;;;;14.55;4.93;;;4.70;1.00;;;;;;5015872;28;20728;-80
2022/02/26 05:23:01;;;;;;;15.65;5.50;;;4.80;1.00;;;;;;5024669;28;20238;-83
2022/02/26 05:25:28;;;;;;;16.88;5.22;;;4.90;1.00;;;;;;5017497;28;20226;-83
2022/02/26 05:27:55;;;;;;;16.23;5.72;;;4.90;1.00;;;;;;5027539;28;20316;-80
2022/02/26 05:30:21;;;;;;;21.23;5.18;;;5.00;1.00;;;;;;5027425;28;20250;-80
2022/02/26 05:32:49;;;;;;;10.70;4.95;;;5.00;1.00;;;;;;5030393;28;21024;-80
2022/02/26 05:35:16;;;;;;;12.85;4.70;;;5.00;1.00;;;;;;5024590;28;20226;-80
2022/02/26 05:37:43;;;;;;;18.92;5.57;;;5.10;1.00;;;;;;5023064;28;20235;-80
2022/02/26 05:40:11;;;;;;;25.60;7.72;;;5.20;1.00;;;;;;5022963;28;20250;-82
2022/02/26 05:42:37;;;;;;;19.88;4.28;;;5.30;1.00;;;;;;5020485;28;20237;-80
2022/02/26 05:45:05;;;;;;;24.30;5.32;;;5.20;1.00;;;;;;5021152;28;20233;-80
2022/02/26 05:47:32;;;;;;;16.83;5.20;;;5.30;1.00;;;;;;5023126;28;20910;-80
2022/02/26 05:50:00;;;;;;;10.95;5.65;;;5.30;1.00;;;;;;5019586;28;20244;-81
2022/02/26 05:52:26;;;;;;;20.60;5.65;;;5.40;1.00;;;;;;5023246;28;20237;-79
2022/02/26 05:54:53;;;;;;;17.38;4.97;;;5.40;1.00;;;;;;5038546;28;20723;-81
2022/02/26 05:57:20;;;;;;;17.60;5.28;;;5.40;1.00;;;;;;5021769;28;20230;-80
2022/02/26 05:59:46;;;;;;;15.70;4.65;;;5.40;1.00;;;;;;5022307;28;20234;-81
2022/02/26 06:02:13;;;;;;;23.10;6.95;;;5.40;1.00;;;;;;5023004;28;20223;-80
2022/02/26 06:04:40;;;;;;;19.45;5.85;;;5.40;1.00;;;;;;5017680;28;20226;-80
2022/02/26 06:07:08;;;;;;;15.73;5.00;;;5.40;1.00;;;;;;5022882;28;20311;-81
2022/02/26 06:09:35;;;;;;;16.40;5.45;;;5.40;1.00;;;;;;5027983;28;20219;-79
2022/02/26 06:12:02;;;;;;;17.70;5.78;;;5.50;1.00;;;;;;5042097;28;20216;-79
2022/02/26 06:14:28;;;;;;;22.75;5.25;;;5.50;1.00;;;;;;5042513;28;20246;-79
2022/02/26 06:16:55;;;;;;;15.73;5.85;;;5.50;1.00;;;;;;5052037;28;20277;-80
2022/02/26 06:19:22;;;;;;;16.95;6.25;;;5.60;1.00;;;;;;5048778;28;20222;-79
2022/02/26 06:21:49;;;;;;;16.58;6.20;;;5.50;1.00;;;;;;5047457;28;20214;-80
2022/02/26 06:24:17;;;;;;;15.65;4.90;;;5.60;1.00;;;;;;5035900;28;20245;-80
2022/02/26 06:26:44;;;;;;;24.05;7.72;;;5.60;1.00;;;;;;5032211;28;20226;-80
2022/02/26 06:29:12;;;;;;;16.05;5.30;;;5.60;1.00;;;;;;5019100;28;20230;-82
2022/02/26 06:31:39;;;;;;;16.73;5.18;;;5.60;1.00;;;;;;5019271;28;20230;-81
2022/02/26 06:34:05;;;;;;;19.60;5.50;;;5.60;1.00;;;;;;5017034;28;20219;-82
2022/02/26 06:36:33;;;;;;;20.60;5.90;;;5.60;1.00;;;;;;5015750;28;21623;-82
2022/02/26 06:39:00;;;;;;;20.65;4.90;;;5.60;1.00;;;;;;5011394;28;20281;-82
2022/02/26 06:41:28;;;;;;;15.73;4.50;;;5.60;1.00;;;;;;5011307;28;20230;-82
2022/02/26 06:43:55;;;;;;;15.98;4.90;;;5.60;1.00;;;;;;5013283;28;20230;-81
2022/02/26 06:46:21;;;;;;;13.10;4.65;;;5.70;1.00;;;;;;5013211;28;20225;-82
2022/02/26 06:48:48;;;;;;;20.65;5.32;;;5.70;1.00;;;;;;5013631;28;20235;-82
2022/02/26 06:51:14;;;;;;;15.43;5.57;;;5.80;1.00;;;;;;5008825;28;20234;-81
2022/02/26 06:53:41;;;;;;;15.32;5.03;;;5.80;1.00;;;;;;5012267;28;20225;-81
2022/02/26 06:56:08;;;;;;;19.38;5.88;;;5.80;1.00;;;;;;5010550;28;20228;-80
2022/02/26 06:58:37;;;;;;;15.32;5.50;;;5.80;1.00;;;;;;5012917;28;20231;-81
2022/02/26 07:01:04;;;;;;;15.48;4.68;;;5.80;1.00;;;;;;5015540;28;20232;-80
2022/02/26 07:03:30;;;;;;;15.20;5.38;;;5.90;1.00;;;;;;5017276;28;20308;-81
2022/02/26 07:05:57;;;;;;;19.52;5.60;;;6.00;1.00;;;;;;5013925;28;20225;-80
2022/02/26 07:08:24;;;;;;;22.20;6.68;;;6.00;1.00;;;;;;5016867;28;20218;-81
2022/02/26 07:10:51;;;;;;;11.57;5.35;;;6.00;1.00;;;;;;5023553;28;20308;-80
2022/02/26 07:13:18;;;;;;;14.23;4.45;;;6.00;1.00;;;;;;5017435;28;20215;-80
2022/02/26 07:15:46;;;;;;;15.25;4.53;;;5.90;1.00;;;;;;5028882;28;20293;-80
2022/02/26 07:18:12;;;;;;;14.30;4.85;;;5.90;1.00;;;;;;5031973;28;20210;-80
2022/02/26 07:20:39;;;;;;;12.18;4.30;;;5.90;1.00;;;;;;5024355;28;20807;-82
2022/02/26 07:23:06;;;;;;;17.05;3.97;;;5.90;1.00;;;;;;5016861;28;20370;-81
2022/02/26 07:25:33;;;;;;;15.23;4.80;;;5.90;1.00;;;;;;5016125;28;20227;-82
2022/02/26 07:27:59;;;;;;;16.67;3.88;;;5.90;1.00;;;;;;5016989;28;20230;-80
2022/02/26 07:30:26;;;;;;;11.85;4.28;;;5.80;1.00;;;;;;5018716;28;20221;-80
2022/02/26 07:32:54;;;;;;;10.85;4.95;;;5.90;1.00;;;;;;5017221;28;20227;-79
2022/02/26 07:35:21;;;;;;;14.85;3.92;;;6.00;1.00;;;;;;5016492;28;20233;-79
2022/02/26 07:37:48;;;;;;;8.98;3.50;;;6.10;1.00;;;;;;5020301;28;20340;-81
2022/02/26 07:40:15;;;;;;;12.93;4.63;;;6.20;1.00;;;;;;5016780;28;20230;-80
2022/02/26 07:42:42;;;;;;;14.85;4.88;;;6.30;1.00;;;;;;5013990;28;20279;-82
2022/02/26 07:45:09;;;;;;;19.20;4.40;;;6.40;1.00;;;;;;5016967;28;21072;-79
2022/02/26 07:47:36;;;;;;;12.38;4.40;;;6.40;1.00;;;;;;5018847;28;20277;-82
2022/02/26 07:50:04;;;;;;;12.77;4.18;;;6.40;1.00;;;;;;5016602;28;20333;-80
2022/02/26 07:52:32;;;;;;;14.95;5.20;;;6.40;1.00;;;;;;5013791;28;20771;-81
2022/02/26 07:54:59;;;;;;;18.38;5.45;;;6.40;1.00;;;;;;5031445;28;20261;-82
2022/02/26 07:57:26;;;;;;;11.15;4.28;;;6.40;1.00;;;;;;5014464;28;21338;-84
2022/02/26 07:59:53;;;;;;;14.75;4.05;;;6.40;1.00;;;;;;5021085;28;20289;-82
2022/02/26 08:02:20;;;;;;;20.63;4.57;;;6.40;1.00;;;;;;5012111;28;20698;-81
2022/02/26 08:04:47;;;;;;;14.30;5.25;;;6.30;1.00;;;;;;5009416;28;20230;-80
2022/02/26 08:07:15;;;;;;;17.67;5.82;;;6.40;1.00;;;;;;5019578;28;20218;-80
2022/02/26 08:09:42;;;;;;;12.48;4.50;;;6.40;1.00;;;;;;5037426;28;20235;-80
2022/02/26 08:12:10;;;;;;;6.50;4.07;;;6.40;1.00;;;;;;5039484;28;20207;-80
2022/02/26 08:14:37;;;;;;;13.10;4.88;;;6.40;1.00;;;;;;5023078;28;20237;-80
2022/02/26 08:17:06;;;;;;;9.00;3.97;;;6.50;1.00;;;;;;5013092;28;20226;-86
2022/02/26 08:19:33;;;;;;;15.20;4.47;;;6.60;1.00;;;;;;5010971;28;20324;-79
2022/02/26 08:22:00;;;;;;;14.20;4.32;;;6.70;1.00;;;;;;5026359;28;20213;-78
2022/02/26 08:24:28;;;;;;;11.80;5.13;;;6.80;1.00;;;;;;5043710;28;20237;-78
2022/02/26 08:26:54;;;;;;;9.35;5.00;;;6.90;1.00;;;;;;5042701;28;20229;-77
2022/02/26 08:29:21;;;;;;;9.70;4.78;;;7.00;1.00;;;;;;5014770;28;20222;-78
2022/02/26 08:31:48;;;;;;;18.13;5.07;;;7.10;1.00;;;;;;5014272;28;20385;-78
2022/02/26 08:34:15;;;;;;;10.77;4.30;;;7.10;1.00;;;;;;5010157;28;20399;-78
2022/02/26 08:36:43;;;;;;;15.55;4.65;;;7.20;1.00;;;;;;5011683;28;20215;-79
2022/02/26 08:39:09;;;;;;;9.35;4.15;;;7.20;1.00;;;;;;5016955;28;20270;-80
2022/02/26 08:41:37;;;;;;;9.77;3.90;;;7.10;1.00;;;;;;5011770;28;20410;-78
2022/02/26 08:44:04;;;;;;;9.00;3.92;;;7.10;1.00;;;;;;5021439;28;21227;-78
2022/02/26 08:46:31;;;;;;;13.10;4.97;;;7.00;1.00;;;;;;5018085;28;20219;-80
2022/02/26 08:48:58;;;;;;;11.88;4.30;;;7.10;1.00;;;;;;5019350;28;20800;-80
2022/02/26 08:51:25;;;;;;;14.05;4.35;;;7.10;1.00;;;;;;5021381;28;20241;-79
2022/02/26 08:53:53;;;;;;;11.35;4.10;;;7.20;1.00;;;;;;5022566;28;20233;-81
2022/02/26 08:56:21;;;;;;;10.75;3.70;;;7.30;1.00;;;;;;5019366;28;20307;-80
2022/02/26 08:58:50;;;;;;;7.65;3.90;;;7.40;1.00;;;;;;5020106;28;20236;-78
2022/02/26 09:01:16;;;;;;;17.80;4.22;;;7.40;1.00;;;;;;5021026;28;20243;-79
2022/02/26 09:03:43;;;;;;;8.20;3.78;;;7.40;1.00;;;;;;5020739;28;20350;-78
2022/02/26 09:06:10;;;;;;;6.95;3.50;;;7.30;1.00;;;;;;5017995;28;20222;-79
2022/02/26 09:08:38;;;;;;;7.93;4.25;;;7.20;1.00;;;;;;5017464;28;20218;-80
2022/02/26 09:11:06;;;;;;;10.13;3.05;;;7.20;1.00;;;;;;5017796;28;20234;-79
2022/02/26 09:13:33;;;;;;;12.10;3.55;;;7.20;1.00;;;;;;5018807;28;20677;-80
2022/02/26 09:16:01;;;;;;;14.38;3.80;;;7.30;1.00;;;;;;5019574;28;21598;-79
2022/02/26 09:18:28;;;;;;;8.18;3.28;;;7.30;1.00;;;;;;5013669;28;20211;-79
2022/02/26 09:20:55;;;;;;;14.15;4.07;;;7.40;1.00;;;;;;5018456;28;20237;-80
2022/02/26 09:23:21;;;;;;;9.68;4.45;;;7.50;1.00;;;;;;5016570;28;20246;-81
2022/02/26 09:25:48;;;;;;;9.83;3.43;;;7.60;1.00;;;;;;5017574;28;20215;-80
2022/02/26 09:28:15;;;;;;;11.38;4.45;;;7.70;1.00;;;;;;5026614;28;20402;-77
2022/02/26 09:30:41;;;;;;;8.47;3.43;;;7.90;1.00;;;;;;5018216;28;20258;-80
2022/02/26 09:33:09;;;;;;;7.72;2.95;;;8.10;1.00;;;;;;5018053;28;20435;-79
2022/02/26 09:35:36;;;;;;;7.90;3.63;;;8.30;1.00;;;;;;5015255;28;20215;-80
2022/02/26 09:38:03;;;;;;;9.27;3.83;;;8.40;1.00;;;;;;5013814;28;20467;-79
2022/02/26 09:40:31;;;;;;;8.50;3.92;;;8.30;1.00;;;;;;5017994;28;20469;-78
2022/02/26 09:42:59;;;;;;;7.28;2.95;;;8.40;1.00;;;;;;5018173;28;20220;-80
2022/02/26 09:45:25;;;;;;;8.55;3.55;;;8.40;1.00;;;;;;5014949;28;20255;-80
2022/02/26 09:47:52;;;;;;;8.63;3.43;;;8.40;1.00;;;;;;5017261;28;20229;-81
2022/02/26 09:50:21;;;;;;;11.13;3.40;;;8.40;1.00;;;;;;5015780;28;21295;-79
2022/02/26 09:52:50;;;;;;;5.85;2.92;;;8.40;1.00;;;;;;5017197;28;20231;-79
2022/02/26 09:55:18;;;;;;;9.67;3.80;;;8.40;1.00;;;;;;5010510;28;20257;-79
2022/02/26 09:57:45;;;;;;;7.20;2.85;;;8.30;1.00;;;;;;5017366;28;20453;-80
2022/02/26 10:00:13;;;;;;;10.25;5.07;;;8.10;1.00;;;;;;5016500;28;20246;-80
2022/02/26 10:02:40;;;;;;;14.65;7.25;;;8.10;1.00;;;;;;5022968;28;20221;-78
2022/02/26 10:05:10;;;;;;;6.82;3.20;;;8.10;1.00;;;;;;5026489;28;20226;-80
2022/02/26 10:07:39;;;;;;;10.82;4.45;;;8.00;1.00;;;;;;5025137;28;20218;-79
2022/02/26 10:10:09;;;;;;;7.07;3.00;;;8.00;1.00;;;;;;5023183;28;20281;-78
2022/02/26 10:12:36;;;;;;;6.90;3.72;;;8.00;1.00;;;;;;5019961;28;20319;-79
2022/02/26 10:15:06;;;;;;;11.27;5.55;;;8.10;1.00;;;;;;5017553;28;20252;-78
2022/02/26 10:17:34;;;;;;;7.32;3.80;;;8.20;1.00;;;;;;5024147;28;20227;-79
2022/02/26 10:20:06;;;;;;;9.93;4.20;;;8.40;1.00;;;;;;5019779;28;20233;-78
2022/02/26 10:22:34;;;;;;;11.45;2.88;;;8.40;1.00;;;;;;5020067;28;20434;-79
2022/02/26 10:25:07;;;;;;;8.40;3.13;;;8.70;1.00;;;;;;5019176;28;20237;-79
2022/02/26 10:27:39;;;;;;;7.05;4.63;;;8.90;1.00;;;;;;5018731;28;20243;-79
2022/02/26 10:30:07;;;;;;;6.73;2.83;;;9.00;1.00;;;;;;5016936;28;20620;-78
2022/02/26 10:32:33;;;;;;;46.83;33.55;;;9.00;1.00;;;;;;5016495;28;20456;-79
2022/02/26 10:35:01;;;;;;;7.80;4.95;;;8.80;1.00;;;;;;5017653;28;20229;-79
2022/02/26 10:37:27;;;;;;;11.53;5.30;;;8.60;1.00;;;;;;5017626;28;20227;-81
2022/02/26 10:39:57;;;;;;;11.63;3.80;;;8.50;1.00;;;;;;5017952;28;20466;-78
2022/02/26 10:42:26;;;;;;;12.68;4.05;;;8.60;1.00;;;;;;5017837;28;21100;-79
2022/02/26 10:45:10;;;;;;;9.32;4.30;;;8.70;1.00;;;;;;5016762;28;20709;-80
2022/02/26 10:47:41;;;;;;;11.68;3.80;;;8.70;1.00;;;;;;5018098;28;20234;-78
2022/02/26 10:50:18;;;;;;;8.82;2.75;;;8.60;1.00;;;;;;5015000;28;20256;-79
2022/02/26 10:52:56;;;;;;;7.10;3.00;;;8.70;1.00;;;;;;5017491;28;20329;-80
2022/02/26 10:55:23;;;;;;;7.93;3.67;;;8.80;1.00;;;;;;5013282;28;20254;-79
2022/02/26 10:57:58;;;;;;;6.80;2.93;;;8.90;1.00;;;;;;5018396;28;20909;-79
2022/02/26 11:00:27;;;;;;;7.63;3.38;;;9.00;1.00;;;;;;5013463;28;21325;-78
2022/02/26 11:03:08;;;;;;;5.90;3.00;;;8.90;1.00;;;;;;5019582;28;20227;-80
2022/02/26 11:05:35;;;;;;;4.50;2.70;;;9.00;1.00;;;;;;5013101;28;20237;-81
2022/02/26 11:08:03;;;;;;;6.77;2.90;;;9.10;1.00;;;;;;5012005;28;20440;-80
2022/02/26 11:10:30;;;;;;;7.45;3.45;;;9.10;1.00;;;;;;5018578;28;20432;-80
2022/02/26 11:13:00;;;;;;;6.68;2.50;;;9.20;1.00;;;;;;5029271;28;20300;-79
2022/02/26 11:15:27;;;;;;;11.87;2.93;;;9.20;1.00;;;;;;5017262;28;20319;-78
2022/02/26 11:17:56;;;;;;;11.43;2.70;;;9.10;1.00;;;;;;5013862;28;20594;-79
2022/02/26 11:20:26;;;;;;;7.60;3.10;;;9.20;1.00;;;;;;5016314;28;20480;-79
2022/02/26 11:22:55;;;;;;;11.65;4.20;;;9.40;1.00;;;;;;5015221;28;20587;-78
2022/02/26 11:25:23;;;;;;;13.20;4.07;;;9.50;1.00;;;;;;5013018;28;20324;-79
2022/02/26 11:27:50;;;;;;;5.63;3.23;;;9.40;1.00;;;;;;5012269;28;20459;-79
2022/02/26 11:30:22;;;;;;;11.10;2.70;;;9.50;1.00;;;;;;5014436;28;20473;-79
2022/02/26 11:32:49;;;;;;;8.33;3.50;;;9.50;1.00;;;;;;5012962;28;20439;-79
2022/02/26 11:35:17;;;;;;;9.10;4.03;;;9.60;1.00;;;;;;5010882;28;20532;-79
2022/02/26 11:37:48;;;;;;;5.57;2.77;;;9.80;1.00;;;;;;5024406;28;20450;-82
2022/02/26 11:40:16;;;;;;;6.60;3.30;;;10.00;1.00;;;;;;5021291;28;20422;-81
2022/02/26 11:42:43;;;;;;;8.13;3.80;;;10.20;1.00;;;;;;5016291;28;21236;-82
2022/02/26 11:45:11;;;;;;;8.80;2.67;;;10.40;1.00;;;;;;5010109;28;20962;-79
2022/02/26 11:47:50;;;;;;;9.57;4.80;;;10.40;1.00;;;;;;5017068;28;20453;-79
2022/02/26 11:50:21;;;;;;;7.10;3.50;;;10.50;1.00;;;;;;5014356;28;20945;-79
2022/02/26 11:52:52;;;;;;;10.53;2.83;;;10.30;1.00;;;;;;5013906;28;21252;-78
2022/02/26 11:55:34;;;;;;;8.77;3.60;;;10.20;1.00;;;;;;5014193;28;20469;-79
2022/02/26 11:58:05;;;;;;;6.50;2.80;;;10.20;1.00;;;;;;5014709;28;20409;-79
2022/02/26 12:00:37;;;;;;;7.20;3.90;;;10.00;1.00;;;;;;5016899;28;20576;-78
2022/02/26 12:03:23;;;;;;;12.47;4.73;;;10.00;1.00;;;;;;5014344;28;21317;-79
2022/02/26 12:05:53;;;;;;;11.20;3.53;;;10.10;1.00;;;;;;5012467;28;20470;-79
2022/02/26 12:08:21;;;;;;;5.03;2.60;;;10.10;1.00;;;;;;5017095;28;20531;-81
2022/02/26 12:10:55;;;;;;;8.50;3.70;;;10.10;1.00;;;;;;5026945;28;20434;-80
2022/02/26 12:13:26;;;;;;;6.40;3.10;;;10.10;1.00;;;;;;5025391;28;20466;-78
2022/02/26 12:16:08;;;;;;;7.10;3.30;;;10.10;1.00;;;;;;5018106;28;20447;-78
2022/02/26 12:18:41;;;;;;;8.63;3.47;;;10.00;1.00;;;;;;5015161;28;20509;-79
2022/02/26 12:21:10;;;;;;;10.03;2.70;;;10.00;1.00;;;;;;5002030;28;20531;-80
2022/02/26 12:23:38;;;;;;;8.23;3.73;;;9.90;1.00;;;;;;5014815;28;20531;-78
2022/02/26 12:26:06;;;;;;;6.97;3.10;;;9.80;1.00;;;;;;5018378;28;21078;-79
2022/02/26 12:28:33;;;;;;;6.40;3.30;;;9.70;1.00;;;;;;5013794;28;20731;-80
2022/02/26 12:33:45;;;;;;;10.00;3.40;;;9.80;1.00;;;;;;5108372;27;1150449;-78
2022/02/26 12:36:14;;;;;;;6.70;2.80;;;9.80;1.00;;;;;;5145100;27;20222;-79
2022/02/26 12:38:48;;;;;;;8.10;2.80;;;9.80;1.00;;;;;;5130343;27;20233;-79
2022/02/26 12:41:29;;;;;;;4.93;2.57;;;9.80;1.00;;;;;;5138024;27;20999;-79
2022/02/26 12:43:56;;;;;;;10.83;2.97;;;9.90;1.00;;;;;;5143604;27;20424;-78
2022/02/26 12:46:23;;;;;;;6.60;2.63;;;9.80;1.00;;;;;;5135894;27;20482;-78
2022/02/26 12:48:52;;;;;;;5.32;2.53;;;9.80;1.00;;;;;;5128546;27;21180;-79
2022/02/26 12:51:19;;;;;;;6.47;2.70;;;9.80;1.00;;;;;;5128635;27;20232;-80
2022/02/26 12:53:45;;;;;;;8.23;3.13;;;9.80;1.00;;;;;;5130958;27;20478;-80
2022/02/26 12:56:12;;;;;;;5.43;2.57;;;9.80;1.00;;;;;;5126149;27;20427;-79
2022/02/26 12:58:39;;;;;;;7.70;3.20;;;9.60;1.00;;;;;;5126563;27;20551;-78
2022/02/26 13:01:05;;;;;;;13.07;3.50;;;9.50;1.00;;;;;;5131089;27;20483;-78
2022/02/26 13:03:32;;;;;;;3.83;2.00;;;9.50;1.00;;;;;;5127502;27;20507;-78